Time;durP1;ratioP1;P1;durP2;ratioP2;P2;SDS_P1;SDS_P2;PMS_P1;PMS_P2;Temp;Humidity;BMP_temperature;BMP_pressure;BME280_temperature;BME280_humidity;BME280_pressure;Samples;Min_cycle;Max_cycle;Signal;HPM_P1;HPM_P2
2022/05/08 03:01:42;;;;;;;1.50;1.50;;;14.70;74.60;;;;;;5599004;23;20496;-67
2022/05/08 03:04:08;;;;;;;1.70;1.60;;;14.70;74.70;;;;;;4996228;28;20485;-67
2022/05/08 03:06:35;;;;;;;1.50;1.40;;;14.70;74.80;;;;;;4996006;28;20433;-68
2022/05/08 03:09:02;;;;;;;1.20;1.20;;;14.70;74.70;;;;;;4996138;28;20444;-69
2022/05/08 03:11:29;;;;;;;1.50;1.40;;;14.70;74.60;;;;;;4996077;28;20523;-70
2022/05/08 03:13:57;;;;;;;1.30;1.30;;;14.70;74.60;;;;;;4996089;28;20445;-68
2022/05/08 03:16:25;;;;;;;1.13;1.13;;;14.60;74.70;;;;;;4997201;28;20454;-68
2022/05/08 03:18:53;;;;;;;1.23;1.13;;;14.60;74.70;;;;;;4995693;28;20955;-70
2022/05/08 03:21:19;;;;;;;1.50;1.40;;;14.70;74.60;;;;;;4995632;28;20976;-69
2022/05/08 03:23:47;;;;;;;1.40;1.40;;;14.60;74.40;;;;;;4995562;28;20461;-69
2022/05/08 03:26:15;;;;;;;1.63;1.53;;;14.60;74.50;;;;;;4995871;28;20449;-69
2022/05/08 03:28:43;;;;;;;1.63;1.53;;;14.60;74.50;;;;;;4995810;28;20445;-69
2022/05/08 03:31:10;;;;;;;1.33;1.33;;;14.60;74.60;;;;;;4995790;28;20836;-69
2022/05/08 03:33:38;;;;;;;1.70;1.60;;;14.60;74.50;;;;;;4995435;28;20944;-69
2022/05/08 03:36:07;;;;;;;1.43;1.37;;;14.50;74.60;;;;;;4995717;28;20448;-68
2022/05/08 03:38:35;;;;;;;1.30;1.30;;;14.50;74.50;;;;;;4994968;28;20452;-68
2022/05/08 03:41:02;;;;;;;1.20;1.10;;;14.50;74.50;;;;;;4995580;28;20476;-70
2022/05/08 03:43:29;;;;;;;1.40;1.30;;;14.50;74.60;;;;;;4995494;28;20447;-69
2022/05/08 03:45:57;;;;;;;1.50;1.40;;;14.40;74.50;;;;;;4995155;28;21082;-69
2022/05/08 03:48:24;;;;;;;1.60;1.50;;;14.40;74.90;;;;;;4995423;28;20449;-70
2022/05/08 03:50:50;;;;;;;1.47;1.47;;;14.30;75.00;;;;;;4995386;28;20469;-69
2022/05/08 03:53:18;;;;;;;1.60;1.60;;;14.30;75.00;;;;;;4995113;28;20801;-69
2022/05/08 03:55:45;;;;;;;1.57;1.50;;;14.30;75.30;;;;;;4995420;28;20907;-69
2022/05/08 03:58:12;;;;;;;1.50;1.40;;;14.30;75.50;;;;;;4995021;28;20863;-70
2022/05/08 04:00:39;;;;;;;1.30;1.30;;;14.30;75.50;;;;;;4995066;28;20547;-69
2022/05/08 04:03:06;;;;;;;1.40;1.40;;;14.30;75.40;;;;;;4995247;28;20461;-69
2022/05/08 04:05:32;;;;;;;1.70;1.60;;;14.30;75.20;;;;;;4995024;28;20484;-68
2022/05/08 04:07:59;;;;;;;1.40;1.40;;;14.30;75.20;;;;;;4995087;28;20460;-69
2022/05/08 04:10:27;;;;;;;1.50;1.50;;;14.30;75.20;;;;;;4995028;28;20460;-70
2022/05/08 04:12:54;;;;;;;1.67;1.57;;;14.30;75.10;;;;;;4994995;28;20449;-69
2022/05/08 04:18:05;;;;;;;1.67;1.57;;;14.30;75.40;;;;;;4994672;28;20408;-69
2022/05/08 04:20:32;;;;;;;1.57;1.50;;;14.30;75.20;;;;;;4994822;28;20449;-70
2022/05/08 04:25:44;;;;;;;1.50;1.40;;;14.30;75.40;;;;;;4994686;28;20616;-67
2022/05/08 04:28:11;;;;;;;1.60;1.50;;;14.20;75.50;;;;;;4994701;28;20441;-67
2022/05/08 04:30:38;;;;;;;1.60;1.50;;;14.30;75.70;;;;;;4994587;28;20508;-68
2022/05/08 04:33:05;;;;;;;1.50;1.50;;;14.30;75.80;;;;;;4994630;28;20445;-69
2022/05/08 04:35:32;;;;;;;1.90;1.80;;;14.30;75.90;;;;;;4994150;28;20945;-69
2022/05/08 04:37:58;;;;;;;1.60;1.50;;;14.30;75.90;;;;;;4994186;28;20882;-69
2022/05/08 04:40:25;;;;;;;1.67;1.57;;;14.30;75.90;;;;;;4994013;28;21086;-70
2022/05/08 04:42:53;;;;;;;1.67;1.57;;;14.40;75.80;;;;;;4994280;28;20453;-69
2022/05/08 04:45:20;;;;;;;1.37;1.37;;;14.40;75.60;;;;;;4994181;28;20480;-69
2022/05/08 04:47:47;;;;;;;1.20;1.20;;;14.40;75.70;;;;;;4994368;28;20511;-69
2022/05/08 04:50:14;;;;;;;1.43;1.40;;;14.40;75.60;;;;;;4993510;28;20860;-70
2022/05/08 04:52:40;;;;;;;1.80;1.70;;;14.40;75.50;;;;;;4994042;28;20469;-68
2022/05/08 04:55:08;;;;;;;1.63;1.53;;;14.40;75.50;;;;;;4994285;28;20445;-69
2022/05/08 04:57:34;;;;;;;1.50;1.40;;;14.40;75.70;;;;;;4994196;28;20448;-69
2022/05/08 05:00:05;;;;;;;1.83;1.73;;;14.50;75.60;;;;;;4994657;28;20449;-69
2022/05/08 05:02:33;;;;;;;1.40;1.30;;;14.50;75.50;;;;;;4995469;28;20536;-69
2022/05/08 05:05:00;;;;;;;1.10;1.10;;;14.50;75.40;;;;;;4994765;28;20485;-69
2022/05/08 05:07:27;;;;;;;1.77;1.40;;;14.60;75.10;;;;;;4994033;28;20453;-69
2022/05/08 05:09:54;;;;;;;1.20;1.20;;;14.60;73.80;;;;;;4993963;28;20504;-68
2022/05/08 05:12:20;;;;;;;1.40;1.40;;;14.50;73.70;;;;;;4993860;28;20461;-69
2022/05/08 05:14:47;;;;;;;1.40;1.30;;;14.60;73.90;;;;;;4993905;28;20441;-68
2022/05/08 05:17:15;;;;;;;1.13;1.13;;;14.60;74.60;;;;;;4993920;28;20484;-69
2022/05/08 05:19:42;;;;;;;1.30;1.30;;;14.60;74.80;;;;;;4993895;28;20453;-69
2022/05/08 05:22:08;;;;;;;1.53;1.43;;;14.70;74.40;;;;;;4993416;28;20991;-69
2022/05/08 05:24:35;;;;;;;1.30;1.30;;;14.70;74.20;;;;;;4994163;28;20481;-69
2022/05/08 05:27:01;;;;;;;1.60;1.50;;;14.70;74.20;;;;;;4993820;28;20456;-69
2022/05/08 05:29:28;;;;;;;1.33;1.33;;;14.80;74.30;;;;;;4993674;28;20495;-69
2022/05/08 05:31:55;;;;;;;1.40;1.40;;;14.80;74.60;;;;;;4993880;28;20503;-69
2022/05/08 05:34:23;;;;;;;1.30;1.30;;;14.90;74.80;;;;;;4993695;28;20472;-69
2022/05/08 05:36:49;;;;;;;1.57;1.57;;;15.00;74.80;;;;;;4993684;28;20449;-69
2022/05/08 05:39:16;;;;;;;1.40;1.40;;;15.00;74.00;;;;;;4993646;28;20453;-69
2022/05/08 05:41:43;;;;;;;1.27;1.20;;;15.00;74.10;;;;;;4993823;28;20540;-67
2022/05/08 05:44:09;;;;;;;1.20;1.20;;;15.10;73.80;;;;;;4993766;28;20855;-68
2022/05/08 05:49:20;;;;;;;1.20;1.20;;;15.20;74.00;;;;;;4993285;28;20409;-68
2022/05/08 05:51:48;;;;;;;1.63;1.50;;;15.20;74.30;;;;;;4993417;28;20552;-70
2022/05/08 05:54:15;;;;;;;1.53;1.50;;;15.30;74.50;;;;;;4994272;28;20449;-70
2022/05/08 05:56:42;;;;;;;1.40;1.40;;;15.40;74.70;;;;;;4993489;28;20820;-70
2022/05/08 05:59:08;;;;;;;1.93;1.83;;;15.50;74.80;;;;;;4993349;28;21076;-69
2022/05/08 06:01:35;;;;;;;1.50;1.50;;;15.60;74.50;;;;;;4993889;28;20546;-70
2022/05/08 06:04:02;;;;;;;1.77;1.70;;;15.60;74.50;;;;;;4997438;28;20448;-70
2022/05/08 06:06:28;;;;;;;1.53;1.43;;;15.70;74.10;;;;;;4997297;28;20485;-70
2022/05/08 06:08:56;;;;;;;1.63;1.60;;;15.80;74.00;;;;;;4997062;28;20941;-70
2022/05/08 06:11:23;;;;;;;1.60;1.50;;;15.90;74.00;;;;;;4997212;28;20464;-70
2022/05/08 06:13:49;;;;;;;1.67;1.57;;;15.90;73.90;;;;;;4996963;28;20488;-69
2022/05/08 06:16:16;;;;;;;1.60;1.60;;;16.00;73.80;;;;;;4997187;28;20445;-69
2022/05/08 06:18:44;;;;;;;1.77;1.67;;;16.20;74.20;;;;;;4996814;28;20452;-67
2022/05/08 06:21:10;;;;;;;1.47;1.47;;;16.30;74.00;;;;;;4996928;28;20464;-67
2022/05/08 06:23:38;;;;;;;1.50;1.40;;;16.50;73.30;;;;;;4997086;28;20453;-67
2022/05/08 06:26:06;;;;;;;1.90;1.80;;;16.60;73.00;;;;;;4996911;28;20508;-69
2022/05/08 06:28:34;;;;;;;1.40;1.40;;;16.60;73.10;;;;;;4997011;28;20479;-67
2022/05/08 06:31:00;;;;;;;1.43;1.43;;;16.70;72.60;;;;;;4996588;28;20472;-67
2022/05/08 06:33:27;;;;;;;2.10;2.00;;;16.90;72.60;;;;;;4997557;28;20448;-67
2022/05/08 06:35:55;;;;;;;1.60;1.50;;;17.00;72.60;;;;;;4996891;28;20507;-66
2022/05/08 06:38:21;;;;;;;1.47;1.40;;;17.10;71.70;;;;;;4996543;28;21002;-67
2022/05/08 06:40:48;;;;;;;1.90;1.80;;;17.20;71.40;;;;;;4996607;28;20770;-67
2022/05/08 06:43:16;;;;;;;2.03;1.93;;;17.20;71.20;;;;;;4997145;28;20449;-68
2022/05/08 06:45:44;;;;;;;2.07;1.97;;;17.30;71.00;;;;;;4996753;28;20530;-67
2022/05/08 06:48:10;;;;;;;1.40;1.40;;;17.30;70.60;;;;;;4996671;28;20522;-67
2022/05/08 06:50:37;;;;;;;1.90;1.80;;;17.30;70.70;;;;;;4996541;28;20453;-70
2022/05/08 06:53:04;;;;;;;1.70;1.60;;;17.40;70.80;;;;;;4996468;28;20449;-70
2022/05/08 06:55:31;;;;;;;1.77;1.67;;;17.50;70.20;;;;;;4996484;28;20440;-70
2022/05/08 06:57:57;;;;;;;1.60;1.60;;;17.60;70.60;;;;;;4996359;28;20526;-70
2022/05/08 07:03:10;;;;;;;1.70;1.60;;;17.90;70.90;;;;;;4996302;28;20409;-67
2022/05/08 07:05:40;;;;;;;1.40;1.40;;;17.90;69.70;;;;;;4996125;28;20512;-68
2022/05/08 07:08:07;;;;;;;1.77;1.70;;;18.10;69.70;;;;;;4996239;28;20608;-69
2022/05/08 07:10:33;;;;;;;1.70;1.60;;;18.10;68.90;;;;;;4996081;28;20449;-67
2022/05/08 07:13:00;;;;;;;1.23;1.23;;;18.10;68.80;;;;;;4995521;28;20504;-68
2022/05/08 07:15:28;;;;;;;1.30;1.30;;;18.20;69.00;;;;;;4995464;28;20870;-69
2022/05/08 07:17:55;;;;;;;1.90;1.80;;;18.20;69.30;;;;;;4995969;28;20507;-70
2022/05/08 07:20:21;;;;;;;1.77;1.67;;;18.20;69.00;;;;;;4996005;28;20496;-67
2022/05/08 07:22:49;;;;;;;1.50;1.50;;;18.20;69.10;;;;;;4995963;28;20446;-68
2022/05/08 07:25:15;;;;;;;1.27;1.27;;;18.20;69.10;;;;;;4996348;28;20547;-67
2022/05/08 07:27:42;;;;;;;1.67;1.67;;;18.30;69.50;;;;;;4995867;28;20504;-68
2022/05/08 07:30:10;;;;;;;1.50;1.50;;;18.30;69.90;;;;;;4995526;28;20944;-68
2022/05/08 07:32:38;;;;;;;1.73;1.63;;;18.20;70.20;;;;;;4995790;28;20662;-67
2022/05/08 07:37:52;;;;;;;1.10;1.10;;;18.40;70.10;;;;;;4978781;28;20476;-67
2022/05/08 07:40:19;;;;;;;1.20;1.20;;;18.50;69.40;;;;;;4995272;28;20842;-67
2022/05/08 07:42:45;;;;;;;1.33;1.33;;;18.70;69.20;;;;;;4995379;28;20516;-67
2022/05/08 07:45:12;;;;;;;1.30;1.30;;;18.90;68.80;;;;;;4995288;28;20511;-68
2022/05/08 07:47:40;;;;;;;1.30;1.30;;;19.10;68.40;;;;;;4995589;28;20453;-69
2022/05/08 07:50:09;;;;;;;1.10;1.10;;;19.10;68.20;;;;;;4995191;28;20933;-70
2022/05/08 07:52:38;;;;;;;1.57;1.47;;;19.30;67.90;;;;;;4995390;28;20469;-67
2022/05/08 07:55:06;;;;;;;1.20;1.20;;;19.30;66.80;;;;;;4995187;28;20959;-69
2022/05/08 07:57:33;;;;;;;1.40;1.30;;;18.80;67.30;;;;;;4994971;28;20957;-70
2022/05/08 07:59:59;;;;;;;1.20;1.20;;;18.50;67.90;;;;;;4995171;28;20460;-67
2022/05/08 08:02:26;;;;;;;1.40;1.40;;;18.30;68.40;;;;;;4995109;28;20499;-67
2022/05/08 08:04:54;;;;;;;1.10;1.10;;;18.30;68.70;;;;;;4995272;28;20476;-70
2022/05/08 08:07:21;;;;;;;1.20;1.10;;;18.30;69.50;;;;;;4994910;28;20477;-70
2022/05/08 08:09:48;;;;;;;1.40;1.40;;;18.20;69.60;;;;;;4995080;28;20503;-70
2022/05/08 08:12:14;;;;;;;1.30;1.30;;;18.40;70.10;;;;;;4994968;28;20465;-68
2022/05/08 08:14:41;;;;;;;1.30;1.20;;;18.60;68.40;;;;;;4994940;28;20511;-67
2022/05/08 08:17:08;;;;;;;1.30;1.30;;;18.60;68.80;;;;;;4994867;28;20519;-67
2022/05/08 08:19:34;;;;;;;1.13;1.13;;;18.80;68.80;;;;;;4994555;28;20999;-68
2022/05/08 08:22:03;;;;;;;1.20;1.20;;;19.10;67.50;;;;;;4994382;28;20519;-67
2022/05/08 08:24:29;;;;;;;1.10;1.10;;;18.80;67.70;;;;;;4994473;28;20615;-67
2022/05/08 08:26:56;;;;;;;1.20;1.20;;;19.00;68.00;;;;;;4994558;28;20477;-67
2022/05/08 08:29:23;;;;;;;1.40;1.30;;;19.00;68.00;;;;;;4994658;28;20496;-67
2022/05/08 08:31:49;;;;;;;1.43;1.33;;;19.00;68.60;;;;;;4994439;28;20461;-67
2022/05/08 08:34:16;;;;;;;1.20;1.20;;;19.30;67.80;;;;;;4994527;28;20445;-67
2022/05/08 08:36:43;;;;;;;1.13;1.13;;;19.50;67.30;;;;;;4994553;28;20512;-67
2022/05/08 08:39:11;;;;;;;1.00;1.00;;;19.70;66.50;;;;;;4994279;28;20999;-67
2022/05/08 08:41:45;;;;;;;1.20;1.20;;;19.80;66.20;;;;;;4994296;28;20469;-68
2022/05/08 08:49:51;;;;;;;1.00;1.00;;;19.60;65.30;;;;;;4994177;28;20413;-68
2022/05/08 08:52:19;;;;;;;1.07;0.97;;;19.70;65.60;;;;;;4994454;28;20548;-69
2022/05/08 08:54:47;;;;;;;1.00;1.00;;;19.70;65.50;;;;;;4994284;28;20453;-70
2022/05/08 08:57:14;;;;;;;1.00;1.00;;;20.00;65.60;;;;;;4993970;28;20449;-70
2022/05/08 08:59:41;;;;;;;1.17;1.10;;;20.40;65.80;;;;;;4994070;28;20509;-68
2022/05/08 09:02:16;;;;;;;0.97;0.97;;;20.80;64.80;;;;;;4993720;28;20489;-68
2022/05/08 09:04:44;;;;;;;1.10;1.00;;;21.10;64.10;;;;;;4994238;28;20549;-69
2022/05/08 09:07:38;;;;;;;1.30;1.20;;;20.90;64.00;;;;;;4994267;28;20535;-69
2022/05/08 09:10:12;;;;;;;1.20;1.10;;;20.90;63.70;;;;;;4994269;28;20603;-68
2022/05/08 09:12:40;;;;;;;0.90;0.90;;;20.80;60.90;;;;;;4993946;28;20471;-68
2022/05/08 09:15:21;;;;;;;0.87;0.87;;;20.80;61.40;;;;;;5112689;23;20578;-79
2022/05/08 09:17:49;;;;;;;0.90;0.90;;;20.70;61.70;;;;;;4994659;28;20445;-78
2022/05/08 09:20:27;;;;;;;0.80;0.80;;;20.80;62.40;;;;;;4994820;28;20441;-79
2022/05/08 09:23:09;;;;;;;0.93;0.90;;;20.60;62.60;;;;;;4994736;28;20456;-78
2022/05/08 09:25:45;;;;;;;0.80;0.80;;;20.60;61.50;;;;;;4994292;28;21087;-78
2022/05/08 09:28:12;;;;;;;0.80;0.80;;;20.60;61.00;;;;;;4994534;28;20499;-78
2022/05/08 09:30:54;;;;;;;0.80;0.80;;;20.60;60.00;;;;;;4994681;28;20456;-79
2022/05/08 09:33:30;;;;;;;1.03;1.00;;;20.70;60.90;;;;;;4994636;28;20516;-78
2022/05/08 09:35:58;;;;;;;0.90;0.90;;;20.50;60.50;;;;;;4994510;28;20465;-78
2022/05/08 09:38:41;;;;;;;0.90;0.90;;;20.40;61.50;;;;;;4994458;28;20457;-78
2022/05/08 09:41:10;;;;;;;0.93;0.93;;;20.30;61.90;;;;;;4994266;28;20968;-78
2022/05/08 09:43:37;;;;;;;0.90;0.90;;;20.30;61.80;;;;;;4994851;28;20453;-78
2022/05/08 09:46:05;;;;;;;0.90;0.90;;;20.10;61.70;;;;;;4996831;28;20495;-79
2022/05/08 09:48:33;;;;;;;0.80;0.80;;;20.30;62.60;;;;;;5000689;28;20947;-78
2022/05/08 09:51:03;;;;;;;1.10;1.00;;;20.30;60.30;;;;;;4996593;28;20541;-78
2022/05/08 09:53:30;;;;;;;1.13;0.90;;;20.40;60.20;;;;;;4997265;28;20481;-78
2022/05/08 09:55:58;;;;;;;1.00;1.00;;;20.30;60.70;;;;;;4996526;28;20818;-78
2022/05/08 09:58:26;;;;;;;0.90;0.90;;;20.40;59.60;;;;;;4996976;28;20449;-78
2022/05/08 10:00:56;;;;;;;1.00;1.00;;;20.40;59.60;;;;;;4997205;28;20456;-78
2022/05/08 10:03:23;;;;;;;0.90;0.90;;;20.30;60.80;;;;;;4997493;28;20455;-78
2022/05/08 10:05:50;;;;;;;0.90;0.90;;;20.30;61.50;;;;;;4997102;28;20473;-78
2022/05/08 10:08:19;;;;;;;1.33;1.00;;;20.40;59.60;;;;;;4997385;28;20453;-78
2022/05/08 10:13:56;;;;;;;0.80;0.80;;;20.40;59.60;;;;;;4996610;28;20488;-78
2022/05/08 10:16:49;;;;;;;0.90;0.90;;;20.50;60.80;;;;;;4995963;28;20519;-78
2022/05/08 10:19:47;;;;;;;0.90;0.90;;;20.90;60.80;;;;;;4997181;28;20499;-79
2022/05/08 10:22:14;;;;;;;1.07;0.87;;;21.10;60.80;;;;;;4995956;28;20430;-79
2022/05/08 10:24:43;;;;;;;0.93;0.93;;;21.40;59.30;;;;;;4995198;28;20473;-79
2022/05/08 10:27:11;;;;;;;0.90;0.90;;;21.60;58.80;;;;;;4995261;28;20531;-79
2022/05/08 10:29:40;;;;;;;0.70;0.70;;;21.60;57.80;;;;;;4995538;28;20540;-79
2022/05/08 10:32:09;;;;;;;1.00;0.90;;;21.50;58.00;;;;;;4997691;28;20449;-79
2022/05/08 10:34:37;;;;;;;0.80;0.80;;;21.10;58.60;;;;;;4996098;28;20456;-79
2022/05/08 10:37:27;;;;;;;1.20;1.10;;;21.00;59.60;;;;;;4995696;28;20484;-79
2022/05/08 10:39:54;;;;;;;0.90;0.90;;;21.10;58.20;;;;;;4995896;28;20535;-78
2022/05/08 10:42:42;;;;;;;0.70;0.70;;;21.10;59.90;;;;;;4994797;28;20499;-79
2022/05/08 10:45:40;;;;;;;0.80;0.80;;;21.30;59.00;;;;;;4995744;28;20503;-79
2022/05/08 10:48:16;;;;;;;0.80;0.80;;;21.70;57.10;;;;;;4995551;28;20516;-78
2022/05/08 10:50:45;;;;;;;0.80;0.80;;;21.90;58.10;;;;;;4999070;28;20488;-79
2022/05/08 10:53:22;;;;;;;1.00;1.00;;;21.90;56.20;;;;;;5001120;28;20453;-79
2022/05/08 10:55:50;;;;;;;0.80;0.80;;;21.70;58.30;;;;;;5000016;28;20556;-79
2022/05/08 10:58:17;;;;;;;0.70;0.70;;;21.70;58.00;;;;;;5000064;28;20503;-79
2022/05/08 11:00:45;;;;;;;0.90;0.90;;;21.90;56.60;;;;;;5000533;28;20532;-79
2022/05/08 11:03:12;;;;;;;0.70;0.70;;;21.90;56.50;;;;;;4999110;28;20475;-77
2022/05/08 11:05:40;;;;;;;0.70;0.70;;;21.90;54.40;;;;;;5000323;28;20469;-78
2022/05/08 11:08:10;;;;;;;0.70;0.70;;;22.00;56.20;;;;;;5008293;28;20484;-79
2022/05/08 11:10:38;;;;;;;0.80;0.77;;;21.80;54.70;;;;;;5011571;28;20472;-80
2022/05/08 11:13:08;;;;;;;0.80;0.80;;;21.60;55.80;;;;;;5007316;28;20464;-78
2022/05/08 11:15:37;;;;;;;0.70;0.70;;;21.60;56.50;;;;;;5007897;28;20540;-78
2022/05/08 11:18:12;;;;;;;0.70;0.60;;;21.90;55.10;;;;;;5007434;28;20521;-78
2022/05/08 11:20:44;;;;;;;0.70;0.70;;;22.10;54.60;;;;;;5001606;28;20925;-78
2022/05/08 11:23:12;;;;;;;0.60;0.60;;;22.30;55.30;;;;;;5000047;28;20905;-77
2022/05/08 11:25:39;;;;;;;0.60;0.60;;;22.40;55.10;;;;;;4999013;28;20566;-79
2022/05/08 11:28:06;;;;;;;0.70;0.70;;;22.40;56.40;;;;;;4997243;28;20904;-78
2022/05/08 11:30:34;;;;;;;0.70;0.70;;;22.60;56.30;;;;;;4998092;28;20453;-78
2022/05/08 11:36:05;;;;;;;0.70;0.70;;;22.90;53.60;;;;;;4977589;28;20927;-79
2022/05/08 11:38:33;;;;;;;0.90;0.70;;;22.90;54.70;;;;;;4998526;28;20437;-78
2022/05/08 11:41:02;;;;;;;0.70;0.70;;;23.20;53.70;;;;;;4997608;28;20449;-79
2022/05/08 11:43:42;;;;;;;0.70;0.60;;;23.30;52.30;;;;;;4999077;28;20895;-78
2022/05/08 11:46:15;;;;;;;0.70;0.70;;;23.20;52.70;;;;;;5000245;28;20476;-78
2022/05/08 11:48:42;;;;;;;0.70;0.60;;;23.20;53.50;;;;;;4998167;28;20433;-78
2022/05/08 11:51:11;;;;;;;0.63;0.63;;;23.30;52.70;;;;;;4998886;28;20471;-78
2022/05/08 11:53:43;;;;;;;0.90;0.73;;;23.30;54.10;;;;;;4998726;28;20495;-78
2022/05/08 11:56:29;;;;;;;1.00;0.80;;;23.40;52.90;;;;;;4999627;28;20499;-79
2022/05/08 11:58:58;;;;;;;0.70;0.70;;;23.40;53.10;;;;;;4998436;28;20525;-78
2022/05/08 12:01:27;;;;;;;0.70;0.60;;;23.40;52.80;;;;;;4998206;28;20816;-78
2022/05/08 12:03:54;;;;;;;0.70;0.70;;;23.20;52.90;;;;;;4996528;28;20933;-79
2022/05/08 12:06:22;;;;;;;0.70;0.70;;;23.20;52.50;;;;;;4997758;28;20473;-79
2022/05/08 12:08:49;;;;;;;0.70;0.70;;;23.10;51.90;;;;;;4997146;28;20476;-79
2022/05/08 12:11:37;;;;;;;0.70;0.63;;;23.00;51.90;;;;;;4997466;28;20453;-79
2022/05/08 12:14:06;;;;;;;1.07;0.60;;;23.00;51.70;;;;;;4997722;28;20487;-79
2022/05/08 12:16:34;;;;;;;0.70;0.70;;;22.90;51.10;;;;;;4997005;28;21032;-79
2022/05/08 12:19:16;;;;;;;0.60;0.60;;;22.90;50.90;;;;;;4997601;28;20452;-79
2022/05/08 12:21:45;;;;;;;0.80;0.70;;;22.90;51.50;;;;;;4998112;28;20457;-79
2022/05/08 12:24:14;;;;;;;0.70;0.60;;;22.70;51.90;;;;;;4998088;28;20449;-79
2022/05/08 12:26:41;;;;;;;0.70;0.60;;;22.50;51.70;;;;;;4998290;28;20464;-79
2022/05/08 12:29:15;;;;;;;0.70;0.70;;;22.30;51.90;;;;;;4996727;28;20449;-79
2022/05/08 12:31:41;;;;;;;1.10;0.60;;;22.40;51.60;;;;;;4997743;28;20437;-78
2022/05/08 12:34:11;;;;;;;0.70;0.60;;;22.40;50.30;;;;;;4996712;28;20862;-78
2022/05/08 12:36:39;;;;;;;0.70;0.70;;;22.30;49.80;;;;;;4995837;28;20465;-78
2022/05/08 12:39:08;;;;;;;0.67;0.63;;;22.10;50.60;;;;;;4997245;28;20484;-79
2022/05/08 12:41:35;;;;;;;0.70;0.60;;;21.80;50.70;;;;;;4996671;28;20854;-78
2022/05/08 12:44:01;;;;;;;0.70;0.70;;;21.80;51.30;;;;;;4995762;28;20937;-79
2022/05/08 12:46:28;;;;;;;0.60;0.60;;;22.00;51.10;;;;;;4995608;28;20832;-79
2022/05/08 12:49:01;;;;;;;0.67;0.67;;;22.20;52.20;;;;;;4996064;28;20792;-78
2022/05/08 12:51:28;;;;;;;0.80;0.70;;;22.10;50.10;;;;;;4995918;28;20438;-79
2022/05/08 12:53:54;;;;;;;0.90;0.70;;;22.00;50.70;;;;;;4996037;28;20495;-79
2022/05/08 12:56:22;;;;;;;0.60;0.60;;;22.00;51.00;;;;;;4995991;28;20476;-78
2022/05/08 13:01:33;;;;;;;0.60;0.60;;;22.00;50.40;;;;;;4996046;28;20408;-79
2022/05/08 13:04:02;;;;;;;2.30;0.60;;;22.00;50.60;;;;;;4995465;28;20953;-79
2022/05/08 13:06:29;;;;;;;0.73;0.67;;;22.10;50.90;;;;;;4995132;28;20552;-79
2022/05/08 13:08:55;;;;;;;0.70;0.70;;;22.20;49.90;;;;;;4995347;28;20488;-79
2022/05/08 13:11:23;;;;;;;0.70;0.70;;;22.40;50.90;;;;;;4994209;28;20461;-79
2022/05/08 13:13:50;;;;;;;0.80;0.60;;;22.60;51.30;;;;;;4994982;28;20453;-78
2022/05/08 13:16:17;;;;;;;0.60;0.50;;;22.70;49.70;;;;;;4995417;28;20557;-79
2022/05/08 13:18:44;;;;;;;0.77;0.77;;;22.90;48.80;;;;;;4995417;28;20456;-78
2022/05/08 13:21:12;;;;;;;0.70;0.70;;;23.00;49.20;;;;;;4995520;28;20453;-78
2022/05/08 13:23:39;;;;;;;0.70;0.60;;;23.20;50.50;;;;;;4995415;28;20459;-79
2022/05/08 13:26:05;;;;;;;0.70;0.70;;;23.40;49.80;;;;;;4995685;28;20469;-79
2022/05/08 13:28:34;;;;;;;0.70;0.67;;;23.60;49.80;;;;;;4996184;28;20484;-79
2022/05/08 13:31:04;;;;;;;1.00;1.00;;;23.80;49.00;;;;;;4995373;28;20449;-79
2022/05/08 13:33:31;;;;;;;0.70;0.60;;;24.00;48.50;;;;;;4994629;28;20455;-79
2022/05/08 13:35:57;;;;;;;0.70;0.63;;;23.90;47.90;;;;;;4995263;28;20531;-79
2022/05/08 13:38:26;;;;;;;0.70;0.60;;;23.70;47.70;;;;;;4994098;28;20794;-79
2022/05/08 13:40:53;;;;;;;0.70;0.70;;;23.60;47.90;;;;;;4994645;28;20916;-79
2022/05/08 13:43:20;;;;;;;0.73;0.73;;;23.60;48.50;;;;;;4994956;28;20464;-79
2022/05/08 13:45:49;;;;;;;0.70;0.60;;;23.50;49.10;;;;;;4994340;28;20850;-79
2022/05/08 13:48:16;;;;;;;0.60;0.60;;;23.40;48.80;;;;;;4994650;28;20548;-79
2022/05/08 13:50:44;;;;;;;0.80;0.60;;;23.40;49.20;;;;;;4994522;28;20449;-79
2022/05/08 13:53:11;;;;;;;0.60;0.60;;;23.40;50.10;;;;;;4994589;28;20503;-79
2022/05/08 13:55:38;;;;;;;0.80;0.80;;;23.40;49.70;;;;;;4994124;28;20469;-79
2022/05/08 13:58:05;;;;;;;0.70;0.60;;;23.50;50.20;;;;;;4994201;28;20480;-79
2022/05/08 14:00:33;;;;;;;0.60;0.60;;;23.70;49.70;;;;;;4994245;28;20449;-79
2022/05/08 14:03:01;;;;;;;0.60;0.60;;;24.00;48.20;;;;;;4994425;28;20828;-79
2022/05/08 14:05:28;;;;;;;0.63;0.60;;;23.80;48.80;;;;;;4994107;28;20473;-79
2022/05/08 14:07:55;;;;;;;0.70;0.70;;;23.70;49.70;;;;;;4994318;28;20476;-79
2022/05/08 14:10:23;;;;;;;0.80;0.60;;;23.70;49.40;;;;;;4994109;28;20511;-79
2022/05/08 14:12:49;;;;;;;0.70;0.70;;;23.40;50.60;;;;;;4994081;28;20456;-79
2022/05/08 14:15:17;;;;;;;0.60;0.60;;;23.40;50.80;;;;;;4993757;28;20484;-79
2022/05/08 14:17:44;;;;;;;0.70;0.60;;;23.50;50.00;;;;;;4994380;28;20459;-79
2022/05/08 14:20:12;;;;;;;0.60;0.60;;;23.60;50.70;;;;;;4995495;28;20499;-79
2022/05/08 14:22:41;;;;;;;0.70;0.70;;;23.40;50.70;;;;;;4994494;28;20453;-79
2022/05/08 14:25:08;;;;;;;0.70;0.60;;;23.30;51.00;;;;;;4997983;28;20480;-79
2022/05/08 14:27:35;;;;;;;0.70;0.70;;;23.20;51.30;;;;;;4997744;28;20484;-79
2022/05/08 14:30:02;;;;;;;0.67;0.60;;;23.20;51.50;;;;;;4997701;28;20456;-79
2022/05/08 14:37:59;;;;;;;0.60;0.60;;;22.90;50.90;;;;;;4997780;28;20548;-79
2022/05/08 14:40:27;;;;;;;0.70;0.63;;;22.90;51.20;;;;;;4997507;28;20453;-79
2022/05/08 14:42:53;;;;;;;0.70;0.70;;;23.00;51.10;;;;;;4997253;28;20461;-79
2022/05/08 14:45:20;;;;;;;1.27;0.70;;;23.20;50.00;;;;;;4997541;28;20527;-79
2022/05/08 14:47:47;;;;;;;0.60;0.60;;;23.00;50.30;;;;;;4997363;28;20600;-79
2022/05/08 14:50:15;;;;;;;0.70;0.60;;;23.00;50.90;;;;;;4997507;28;20448;-79
2022/05/08 14:52:42;;;;;;;0.60;0.60;;;22.80;50.80;;;;;;4997507;28;20457;-79
2022/05/08 14:55:08;;;;;;;0.63;0.60;;;22.80;50.90;;;;;;4997197;28;20504;-79
2022/05/08 14:57:35;;;;;;;0.70;0.70;;;22.70;51.20;;;;;;4997327;28;20449;-79
2022/05/08 15:00:02;;;;;;;0.63;0.60;;;22.50;51.20;;;;;;4997475;28;20456;-79
2022/05/08 15:02:29;;;;;;;0.70;0.70;;;22.30;52.20;;;;;;4997171;28;20535;-79
2022/05/08 15:04:55;;;;;;;0.60;0.60;;;22.30;52.40;;;;;;4997016;28;20468;-79
2022/05/08 15:07:24;;;;;;;0.60;0.50;;;22.50;52.00;;;;;;4997266;28;20452;-79
2022/05/08 15:09:50;;;;;;;0.70;0.60;;;22.70;51.00;;;;;;4997481;28;20536;-79
2022/05/08 15:12:17;;;;;;;0.70;0.70;;;22.70;51.00;;;;;;4997075;28;20449;-79
2022/05/08 15:17:12;;;;;;;0.60;0.60;;;22.90;50.70;;;;;;5097949;23;20483;-68
2022/05/08 15:19:39;;;;;;;0.70;0.63;;;23.00;50.60;;;;;;4996831;28;20445;-69
2022/05/08 15:22:06;;;;;;;0.90;0.70;;;23.30;50.70;;;;;;4996861;28;20454;-70
2022/05/08 15:24:34;;;;;;;0.60;0.60;;;23.60;50.80;;;;;;4996595;28;20814;-68
2022/05/08 15:27:02;;;;;;;0.60;0.50;;;23.50;49.40;;;;;;4996079;28;20560;-68
2022/05/08 15:29:28;;;;;;;0.70;0.70;;;23.30;48.70;;;;;;4996478;28;20485;-68
2022/05/08 15:31:55;;;;;;;0.70;0.60;;;22.80;50.00;;;;;;4995950;28;20913;-68
2022/05/08 15:34:22;;;;;;;1.20;0.70;;;22.40;50.40;;;;;;4995125;28;20457;-68
2022/05/08 15:36:51;;;;;;;0.70;0.70;;;22.20;50.70;;;;;;4995687;28;20469;-68
2022/05/08 15:39:17;;;;;;;0.70;0.70;;;22.00;51.30;;;;;;4996163;28;20535;-68
2022/05/08 15:41:46;;;;;;;0.70;0.60;;;21.80;52.80;;;;;;4996646;28;20453;-69
2022/05/08 15:44:12;;;;;;;0.70;0.70;;;21.90;52.70;;;;;;4996804;28;20933;-68
2022/05/08 15:46:39;;;;;;;0.70;0.70;;;21.90;52.30;;;;;;4995486;28;20474;-68
2022/05/08 15:49:06;;;;;;;0.67;0.63;;;22.00;52.90;;;;;;4995296;28;20481;-68
2022/05/08 15:51:33;;;;;;;0.63;0.63;;;22.30;52.50;;;;;;4995823;28;20449;-69
2022/05/08 15:54:04;;;;;;;0.60;0.60;;;22.50;52.00;;;;;;4995497;28;20552;-68
2022/05/08 15:56:31;;;;;;;0.70;0.60;;;22.50;51.00;;;;;;4995345;28;21002;-69
2022/05/08 15:58:59;;;;;;;0.70;0.70;;;22.50;51.50;;;;;;4995560;28;20448;-68
2022/05/08 16:01:26;;;;;;;0.70;0.60;;;22.40;51.20;;;;;;4995400;28;20433;-69
2022/05/08 16:03:53;;;;;;;0.60;0.60;;;22.50;51.60;;;;;;4995404;28;20458;-69
2022/05/08 16:06:19;;;;;;;0.70;0.60;;;22.60;52.50;;;;;;4995491;28;20523;-69
2022/05/08 16:08:46;;;;;;;0.60;0.60;;;22.50;52.70;;;;;;4995362;28;21074;-69
2022/05/08 16:11:12;;;;;;;0.70;0.60;;;22.50;53.20;;;;;;4995435;28;20488;-71
2022/05/08 16:24:54;;;;;;;0.70;0.70;;;21.60;54.40;;;;;;4936546;28;20471;-69
2022/05/08 16:27:21;;;;;;;0.70;0.70;;;21.50;54.70;;;;;;4994902;28;20468;-68
2022/05/08 16:29:48;;;;;;;0.70;0.60;;;21.50;54.80;;;;;;4994422;28;20520;-68
2022/05/08 16:32:16;;;;;;;0.90;0.70;;;21.40;54.50;;;;;;4994897;28;20449;-68
2022/05/08 16:34:43;;;;;;;0.80;0.70;;;21.30;55.30;;;;;;4994580;28;20449;-68
2022/05/08 16:37:10;;;;;;;0.70;0.70;;;21.30;55.90;;;;;;4994689;28;20496;-68
2022/05/08 16:39:36;;;;;;;0.70;0.60;;;21.50;54.80;;;;;;4994303;28;20801;-69
2022/05/08 16:42:05;;;;;;;0.70;0.70;;;21.50;54.50;;;;;;4994696;28;20441;-69